Portada
METAR-TAF:

METAR-TAF

Aeropuertos :

Skelton Airport

Eureka, Alaska, Estados Unidos

latitud: 61-56N, longitud: 147-10W, altitud: 1002 m

Observación

El informe se hizo hace 30 minutos, a las 07:56 UTC
Viento calma
Temperatura -12°C
Humedad 92%
Presión 993 hPa
Visibilidad: 2.8 km
Cielo cubierto a una altura de 1900 ft
poca nieve, neblina

METAR: PAZK 280756Z AUTO 00000KT 1 3/4SM -SN BR OVC019 M12/M13 A2931 RMK AO2 VIS 1 1/4V4 SLP998 P0000 T11171133 FZRANO

Hora: 23:26 (08:26 UTC)


TAF: falta

Observaciones y pronósticos meteorológicos de más de 4000 aeropuertos (mensajes METAR y TAF).

Los puntos amarillos y rojos representan las estaciones disponibles.

Ponga el ratón en el punto deseado para ver el nombre de la estación.

Haga clic para ver las observaciones y los pronósticos meteorológicos.

Para cambiar el mapa : haga clic en los botones verdes con una cruz de color negro para hacer un zoom, en el botón verde con un guión para alejar o en las flechas verdes para mapas adyacentes.


METAR-TAF: